Time;durP1;ratioP1;P1;durP2;ratioP2;P2;SDS_P1;SDS_P2;PMS_P1;PMS_P2;Temp;Humidity;BMP_temperature;BMP_pressure;BME280_temperature;BME280_humidity;BME280_pressure;Samples;Min_cycle;Max_cycle;Signal;HPM_P1;HPM_P2
2024/01/29 00:00:58;;;;;;;;;;;17.50;54.10;;;;;;10137688;28;93502;-67
2024/01/29 00:06:00;;;;;;;;;;;17.50;54.40;;;;;;10108591;28;95860;-68
2024/01/29 00:11:02;;;;;;;;;;;17.50;54.30;;;;;;10125939;28;93512;-68
2024/01/29 00:16:05;;;;;;;;;;;17.50;54.10;;;;;;10104609;28;93832;-68
2024/01/29 00:21:07;;;;;;;;;;;17.50;53.80;;;;;;10104711;28;94528;-68
2024/01/29 00:26:09;;;;;;;;;;;17.50;53.60;;;;;;10111662;28;93568;-67
2024/01/29 00:31:11;;;;;;;;;;;17.40;53.30;;;;;;10110675;28;93460;-66
2024/01/29 00:36:13;;;;;;;;;;;17.40;53.10;;;;;;10112742;28;93696;-67
2024/01/29 00:41:15;;;;;;;;;;;17.40;53.00;;;;;;10119869;28;92758;-68
2024/01/29 00:46:19;;;;;;;;;;;17.40;52.80;;;;;;10098261;28;94172;-68
2024/01/29 00:51:22;;;;;;;;;;;17.40;53.00;;;;;;10105710;28;94204;-68
2024/01/29 00:56:24;;;;;;;;;;;17.30;53.70;;;;;;10089561;28;96948;-68
2024/01/29 01:01:26;;;;;;;;;;;17.20;53.70;;;;;;10108461;28;95714;-69
2024/01/29 01:06:28;;;;;;;;;;;17.20;54.50;;;;;;10102600;28;94487;-68
2024/01/29 01:11:30;;;;;;;;;;;17.20;53.40;;;;;;10105581;28;94039;-68
2024/01/29 01:16:31;;;;;;;;;;;17.20;53.20;;;;;;10115793;28;94928;-68
2024/01/29 01:21:33;;;;;;;;;;;17.20;53.00;;;;;;10109643;28;93587;-69
2024/01/29 01:26:35;;;;;;;;;;;17.20;52.90;;;;;;10108577;28;94687;-68
2024/01/29 01:31:37;;;;;;;;;;;17.20;52.70;;;;;;10095271;28;93204;-69
2024/01/29 01:36:39;;;;;;;;;;;17.20;52.60;;;;;;10099052;28;93437;-69
2024/01/29 01:41:46;;;;;;;;;;;17.20;52.50;;;;;;10091225;28;94470;-68
2024/01/29 01:46:49;;;;;;;;;;;17.20;52.70;;;;;;10103315;28;95229;-68
2024/01/29 01:51:51;;;;;;;;;;;17.10;53.20;;;;;;10103580;28;93510;-68
2024/01/29 01:57:02;;;;;;;;;;;17.10;53.30;;;;;;10112239;28;94283;-67
2024/01/29 02:07:19;;;;;;;;;;;17.10;53.00;;;;;;10098135;28;95033;-68
2024/01/29 02:12:22;;;;;;;;;;;17.10;52.70;;;;;;10120922;28;94791;-69
2024/01/29 02:17:24;;;;;;;;;;;17.10;52.50;;;;;;10120236;28;93516;-68
2024/01/29 02:22:26;;;;;;;;;;;17.10;52.30;;;;;;10129119;28;92349;-68
2024/01/29 02:27:28;;;;;;;;;;;17.10;52.20;;;;;;10108356;28;93441;-68
2024/01/29 02:32:30;;;;;;;;;;;17.10;52.10;;;;;;10111341;28;93930;-68
2024/01/29 02:37:32;;;;;;;;;;;17.10;52.30;;;;;;10118412;28;95842;-68
2024/01/29 02:42:34;;;;;;;;;;;17.10;52.30;;;;;;10091704;28;93284;-68
2024/01/29 02:47:36;;;;;;;;;;;17.00;52.80;;;;;;10114227;28;94929;-68
2024/01/29 02:52:37;;;;;;;;;;;17.00;52.80;;;;;;10114904;28;94235;-69
2024/01/29 02:57:39;;;;;;;;;;;17.00;52.70;;;;;;10091368;28;93431;-70
2024/01/29 03:02:41;;;;;;;;;;;17.00;52.40;;;;;;10120515;28;93218;-68
2024/01/29 03:07:43;;;;;;;;;;;16.90;52.30;;;;;;10115646;28;94358;-69
2024/01/29 03:12:45;;;;;;;;;;;16.90;52.10;;;;;;10126014;28;92785;-68
2024/01/29 03:17:47;;;;;;;;;;;17.00;52.00;;;;;;10112798;28;93366;-68
2024/01/29 03:22:49;;;;;;;;;;;17.00;51.80;;;;;;10088095;28;94662;-68
2024/01/29 03:27:51;;;;;;;;;;;17.00;51.70;;;;;;10116352;28;96858;-68
2024/01/29 03:32:56;;;;;;;;;;;16.90;51.50;;;;;;10116062;28;93472;-69
2024/01/29 03:37:58;;;;;;;;;;;16.90;52.20;;;;;;10105868;28;94336;-69
2024/01/29 03:43:00;;;;;;;;;;;16.90;52.60;;;;;;10133221;28;93339;-68
2024/01/29 03:48:02;;;;;;;;;;;16.80;52.50;;;;;;10130631;28;93702;-69
2024/01/29 03:53:04;;;;;;;;;;;16.80;52.40;;;;;;10127261;28;92956;-69
2024/01/29 03:58:06;;;;;;;;;;;16.80;52.20;;;;;;10132861;28;93492;-69
2024/01/29 04:03:08;;;;;;;;;;;16.80;52.00;;;;;;10110654;28;92883;-70
2024/01/29 04:08:10;;;;;;;;;;;16.80;51.90;;;;;;10097979;28;94903;-69
2024/01/29 04:13:12;;;;;;;;;;;16.80;51.70;;;;;;10118525;28;93202;-69
2024/01/29 04:18:13;;;;;;;;;;;16.70;51.50;;;;;;10098433;28;96655;-70
2024/01/29 04:23:15;;;;;;;;;;;16.80;51.50;;;;;;10114204;28;94543;-69
2024/01/29 04:28:18;;;;;;;;;;;16.80;51.40;;;;;;10115933;28;93114;-69
2024/01/29 04:33:19;;;;;;;;;;;16.70;51.90;;;;;;10128838;28;93678;-69
2024/01/29 04:38:21;;;;;;;;;;;16.70;52.40;;;;;;10099438;28;93281;-69
2024/01/29 04:43:23;;;;;;;;;;;16.60;52.30;;;;;;10101566;28;93811;-69
2024/01/29 04:48:25;;;;;;;;;;;16.70;52.20;;;;;;10111247;28;93063;-69
2024/01/29 04:53:27;;;;;;;;;;;16.60;52.00;;;;;;10098078;28;94298;-68
2024/01/29 04:58:29;;;;;;;;;;;16.60;51.80;;;;;;10123462;28;94549;-69
2024/01/29 05:03:31;;;;;;;;;;;16.60;51.70;;;;;;10102396;28;96145;-68
2024/01/29 05:08:33;;;;;;;;;;;16.60;51.60;;;;;;10123821;28;96964;-68
2024/01/29 05:13:34;;;;;;;;;;;16.60;51.70;;;;;;10132801;28;94418;-68
2024/01/29 05:18:36;;;;;;;;;;;16.80;51.80;;;;;;10121588;28;94430;-68
2024/01/29 05:23:38;;;;;;;;;;;16.90;51.40;;;;;;10100991;28;93684;-68
2024/01/29 05:28:40;;;;;;;;;;;17.00;51.60;;;;;;10097503;28;93650;-68
2024/01/29 05:33:42;;;;;;;;;;;17.00;51.90;;;;;;10118621;28;93747;-69
2024/01/29 05:38:44;;;;;;;;;;;17.10;51.70;;;;;;10102357;28;94472;-69
2024/01/29 05:43:46;;;;;;;;;;;17.10;51.60;;;;;;10120421;28;92688;-68
2024/01/29 05:48:48;;;;;;;;;;;17.10;51.50;;;;;;10110237;28;94529;-68
2024/01/29 05:53:51;;;;;;;;;;;17.10;51.50;;;;;;10127288;28;93531;-68
2024/01/29 05:58:59;;;;;;;;;;;17.10;51.60;;;;;;10123235;28;95839;-68
2024/01/29 06:04:01;;;;;;;;;;;17.10;51.70;;;;;;10133367;28;93821;-68
2024/01/29 06:09:05;;;;;;;;;;;17.10;51.80;;;;;;10117628;28;93491;-68
2024/01/29 06:14:07;;;;;;;;;;;17.10;51.90;;;;;;10116420;28;93662;-68
2024/01/29 06:19:09;;;;;;;;;;;17.00;52.00;;;;;;10115104;28;94749;-68
2024/01/29 06:24:12;;;;;;;;;;;17.00;52.00;;;;;;10117621;28;92889;-69
2024/01/29 06:29:14;;;;;;;;;;;17.00;52.10;;;;;;10115895;28;93799;-69
2024/01/29 06:34:16;;;;;;;;;;;17.00;52.40;;;;;;10114891;28;92986;-69
2024/01/29 06:39:18;;;;;;;;;;;17.00;52.60;;;;;;10119440;28;92911;-69
2024/01/29 06:44:20;;;;;;;;;;;17.10;52.40;;;;;;10117072;28;94152;-69
2024/01/29 06:49:26;;;;;;;;;;;17.10;52.40;;;;;;10117562;28;96308;-68
2024/01/29 06:54:28;;;;;;;;;;;17.20;52.70;;;;;;10113683;28;94417;-67
2024/01/29 06:59:30;;;;;;;;;;;17.10;53.90;;;;;;10118549;28;94588;-67
2024/01/29 07:04:32;;;;;;;;;;;17.20;56.00;;;;;;10112019;28;93744;-67
2024/01/29 07:09:34;;;;;;;;;;;17.20;54.90;;;;;;10108150;28;93531;-67
2024/01/29 07:14:36;;;;;;;;;;;17.30;55.10;;;;;;10115066;28;94147;-68
2024/01/29 07:19:42;;;;;;;;;;;17.30;55.10;;;;;;10110665;28;94437;-68
2024/01/29 07:24:48;;;;;;;;;;;17.40;55.50;;;;;;10088322;28;92823;-67
2024/01/29 07:29:50;;;;;;;;;;;17.30;55.30;;;;;;10114648;28;93989;-67
2024/01/29 07:34:52;;;;;;;;;;;17.30;55.30;;;;;;10115701;28;94748;-67
2024/01/29 07:39:54;;;;;;;;;;;17.30;55.40;;;;;;10112360;28;96620;-68
2024/01/29 07:44:56;;;;;;;;;;;17.30;55.70;;;;;;10100764;28;94098;-70
2024/01/29 07:49:58;;;;;;;;;;;17.30;55.70;;;;;;10115385;28;94322;-69
2024/01/29 07:55:00;;;;;;;;;;;17.20;56.10;;;;;;10096131;28;94198;-69
2024/01/29 08:00:03;;;;;;;;;;;17.20;55.90;;;;;;10116787;28;94623;-69
2024/01/29 08:05:05;;;;;;;;;;;17.10;56.00;;;;;;10086819;28;93726;-70
2024/01/29 08:10:08;;;;;;;;;;;17.00;55.60;;;;;;10109916;28;92772;-69
2024/01/29 08:15:10;;;;;;;;;;;17.00;55.90;;;;;;10121189;28;92687;-70
2024/01/29 08:20:12;;;;;;;;;;;16.90;55.80;;;;;;10112659;28;94436;-70
2024/01/29 08:25:15;;;;;;;;;;;16.90;55.90;;;;;;10127885;28;94693;-69
2024/01/29 08:30:17;;;;;;;;;;;16.80;55.80;;;;;;10124494;28;96059;-69
2024/01/29 08:35:19;;;;;;;;;;;16.80;55.80;;;;;;10125352;28;92602;-69
2024/01/29 08:40:21;;;;;;;;;;;16.70;55.80;;;;;;10125559;28;94943;-69
2024/01/29 08:45:23;;;;;;;;;;;16.70;55.90;;;;;;10124455;28;96185;-70
2024/01/29 08:50:26;;;;;;;;;;;16.70;55.90;;;;;;10121943;28;93673;-70
2024/01/29 08:55:27;;;;;;;;;;;16.60;55.90;;;;;;10122394;28;94824;-69
2024/01/29 09:00:29;;;;;;;;;;;16.60;55.90;;;;;;10100046;28;93441;-69
2024/01/29 09:05:31;;;;;;;;;;;16.60;56.10;;;;;;10100254;28;93688;-69
2024/01/29 09:10:33;;;;;;;;;;;16.50;56.10;;;;;;10123712;28;94627;-70
2024/01/29 09:15:35;;;;;;;;;;;16.50;55.80;;;;;;10117609;28;93448;-69
2024/01/29 09:20:37;;;;;;;;;;;16.60;56.00;;;;;;10098942;28;95831;-69
2024/01/29 09:25:39;;;;;;;;;;;16.50;56.00;;;;;;10099797;28;94464;-70
2024/01/29 09:30:41;;;;;;;;;;;16.60;56.00;;;;;;10090407;28;93617;-69
2024/01/29 09:35:47;;;;;;;;;;;16.50;56.00;;;;;;10122210;28;96056;-69
2024/01/29 09:40:49;;;;;;;;;;;16.50;55.90;;;;;;10099301;28;92879;-69
2024/01/29 09:45:50;;;;;;;;;;;16.50;55.90;;;;;;10100490;28;93214;-69
2024/01/29 09:50:53;;;;;;;;;;;16.50;55.90;;;;;;10106743;28;94784;-70
2024/01/29 09:56:01;;;;;;;;;;;16.50;56.90;;;;;;10124068;28;93507;-69
2024/01/29 10:01:03;;;;;;;;;;;16.50;56.00;;;;;;10135570;28;93451;-70
2024/01/29 10:06:06;;;;;;;;;;;16.50;56.00;;;;;;10119914;28;93214;-70
2024/01/29 10:11:08;;;;;;;;;;;16.50;56.00;;;;;;10126260;28;96518;-69
2024/01/29 10:16:10;;;;;;;;;;;16.50;56.00;;;;;;10138030;28;93980;-70
2024/01/29 10:21:12;;;;;;;;;;;16.50;56.00;;;;;;10080001;28;93408;-69
2024/01/29 10:26:14;;;;;;;;;;;16.50;56.30;;;;;;10099519;28;94012;-69
2024/01/29 10:31:16;;;;;;;;;;;16.50;56.40;;;;;;10074106;28;94525;-70
2024/01/29 10:36:19;;;;;;;;;;;16.40;56.30;;;;;;10096672;28;94489;-69
2024/01/29 10:41:22;;;;;;;;;;;16.40;56.30;;;;;;10107295;28;93292;-69
2024/01/29 10:46:23;;;;;;;;;;;16.40;56.40;;;;;;10103106;28;92645;-69
2024/01/29 10:51:26;;;;;;;;;;;16.40;56.40;;;;;;10091383;28;93737;-69
2024/01/29 10:56:28;;;;;;;;;;;16.40;56.50;;;;;;10120490;28;93718;-69
2024/01/29 11:01:31;;;;;;;;;;;16.40;56.60;;;;;;10094661;28;96543;-69
2024/01/29 11:06:38;;;;;;;;;;;16.40;56.50;;;;;;10109591;28;94306;-69
2024/01/29 11:11:42;;;;;;;;;;;16.40;56.60;;;;;;10121954;28;94505;-69
2024/01/29 11:16:44;;;;;;;;;;;16.40;56.70;;;;;;10116753;28;94798;-69
2024/01/29 11:21:49;;;;;;;;;;;16.40;56.60;;;;;;10119771;28;94535;-69
2024/01/29 11:26:51;;;;;;;;;;;16.40;56.70;;;;;;10118326;28;93996;-69
2024/01/29 11:31:59;;;;;;;;;;;16.30;56.70;;;;;;10109676;28;93603;-69
2024/01/29 11:37:00;;;;;;;;;;;16.30;56.70;;;;;;10125337;28;92796;-70
2024/01/29 11:42:02;;;;;;;;;;;16.30;56.80;;;;;;10097089;28;95239;-70
2024/01/29 11:47:10;;;;;;;;;;;16.40;56.80;;;;;;10126524;28;94305;-69
2024/01/29 11:52:12;;;;;;;;;;;16.30;56.70;;;;;;10121612;28;96371;-69
2024/01/29 11:57:14;;;;;;;;;;;16.40;56.80;;;;;;10111345;28;94625;-69
2024/01/29 12:02:16;;;;;;;;;;;16.40;56.70;;;;;;10111348;28;94455;-70
2024/01/29 12:07:18;;;;;;;;;;;16.40;56.80;;;;;;10107678;28;94382;-70
2024/01/29 12:12:20;;;;;;;;;;;16.40;56.70;;;;;;10135397;28;97275;-69
2024/01/29 12:17:25;;;;;;;;;;;16.40;56.60;;;;;;10108561;28;93489;-69
2024/01/29 12:22:28;;;;;;;;;;;16.40;56.50;;;;;;10091021;28;94679;-69
2024/01/29 12:27:30;;;;;;;;;;;16.40;56.50;;;;;;10109262;28;93026;-69
2024/01/29 12:32:32;;;;;;;;;;;16.40;56.50;;;;;;10107751;28;94816;-70
2024/01/29 12:37:34;;;;;;;;;;;16.40;56.40;;;;;;10117076;28;94576;-70
2024/01/29 12:42:36;;;;;;;;;;;16.40;56.40;;;;;;10104326;28;96115;-70
2024/01/29 12:47:38;;;;;;;;;;;16.40;56.50;;;;;;10108789;28;93728;-70
2024/01/29 12:52:40;;;;;;;;;;;16.50;56.50;;;;;;10099707;28;94441;-70
2024/01/29 12:57:41;;;;;;;;;;;16.40;56.50;;;;;;10112322;28;94263;-70
2024/01/29 13:02:43;;;;;;;;;;;16.50;56.60;;;;;;10105194;28;94899;-70
2024/01/29 13:07:46;;;;;;;;;;;16.50;56.60;;;;;;10100764;28;94393;-70
2024/01/29 13:12:49;;;;;;;;;;;16.50;56.60;;;;;;10110906;28;94269;-70
2024/01/29 13:17:50;;;;;;;;;;;16.50;56.90;;;;;;10117749;28;93518;-70
2024/01/29 13:22:52;;;;;;;;;;;16.40;57.00;;;;;;10100170;28;94593;-70
2024/01/29 13:27:55;;;;;;;;;;;16.50;57.10;;;;;;10100532;28;95023;-70
2024/01/29 13:32:57;;;;;;;;;;;16.40;57.10;;;;;;10087312;28;95262;-71
2024/01/29 13:37:59;;;;;;;;;;;16.40;57.10;;;;;;10099705;28;92553;-70
2024/01/29 13:43:02;;;;;;;;;;;16.40;57.20;;;;;;10108714;28;93619;-71
2024/01/29 13:48:05;;;;;;;;;;;16.40;57.20;;;;;;10082745;28;93614;-70
2024/01/29 13:53:07;;;;;;;;;;;16.40;57.20;;;;;;10095835;28;93922;-70
2024/01/29 13:58:09;;;;;;;;;;;16.40;57.20;;;;;;10121281;28;94074;-70
2024/01/29 14:03:11;;;;;;;;;;;16.40;57.30;;;;;;10087698;28;93481;-70
2024/01/29 14:08:13;;;;;;;;;;;16.40;57.20;;;;;;10114611;28;94553;-70
2024/01/29 14:13:15;;;;;;;;;;;16.30;57.30;;;;;;10122754;28;94513;-70
2024/01/29 14:18:18;;;;;;;;;;;16.30;57.30;;;;;;10087450;28;94750;-70
2024/01/29 14:23:20;;;;;;;;;;;16.30;57.30;;;;;;10100173;28;95793;-70
2024/01/29 14:28:22;;;;;;;;;;;16.30;57.30;;;;;;10102596;28;94451;-70
2024/01/29 14:33:23;;;;;;;;;;;16.30;57.40;;;;;;10100985;28;93460;-70
2024/01/29 14:38:30;;;;;;;;;;;16.30;57.40;;;;;;10100322;28;93910;-70
2024/01/29 14:43:31;;;;;;;;;;;16.30;57.40;;;;;;10100358;28;94558;-70
2024/01/29 14:48:33;;;;;;;;;;;16.30;57.40;;;;;;10089720;28;94666;-70
2024/01/29 14:53:35;;;;;;;;;;;16.30;57.40;;;;;;10112258;28;94469;-70
2024/01/29 14:58:37;;;;;;;;;;;16.30;57.50;;;;;;10115607;28;92763;-70
2024/01/29 15:03:40;;;;;;;;;;;16.30;57.60;;;;;;10114008;28;94780;-70
2024/01/29 15:08:42;;;;;;;;;;;16.30;57.70;;;;;;10115986;28;94361;-70
2024/01/29 15:13:44;;;;;;;;;;;16.20;57.60;;;;;;10108267;28;96478;-69
2024/01/29 15:18:45;;;;;;;;;;;16.20;57.70;;;;;;10119911;28;95063;-70
2024/01/29 15:23:47;;;;;;;;;;;16.20;57.70;;;;;;10119034;28;94442;-70
2024/01/29 15:28:49;;;;;;;;;;;16.20;57.50;;;;;;10118191;28;94434;-70
2024/01/29 15:33:51;;;;;;;;;;;16.20;57.10;;;;;;10118774;28;93485;-69
2024/01/29 15:38:54;;;;;;;;;;;16.20;56.70;;;;;;10118148;28;94798;-69
2024/01/29 15:43:55;;;;;;;;;;;16.20;56.40;;;;;;10117289;28;92863;-69
2024/01/29 15:48:58;;;;;;;;;;;16.20;56.00;;;;;;10114413;28;94961;-69
2024/01/29 15:54:00;;;;;;;;;;;16.20;55.70;;;;;;10118612;28;93403;-70
2024/01/29 15:59:02;;;;;;;;;;;16.20;55.50;;;;;;10121156;28;94524;-70
2024/01/29 16:04:04;;;;;;;;;;;16.20;55.30;;;;;;10116007;28;95917;-69
2024/01/29 16:09:09;;;;;;;;;;;16.20;55.00;;;;;;10099300;28;94288;-70
2024/01/29 16:14:11;;;;;;;;;;;16.20;55.50;;;;;;10103907;28;94890;-70
2024/01/29 16:19:13;;;;;;;;;;;16.10;56.00;;;;;;10109470;28;93797;-70
2024/01/29 16:24:15;;;;;;;;;;;16.10;56.10;;;;;;10124480;28;94203;-69
2024/01/29 16:29:17;;;;;;;;;;;16.10;55.80;;;;;;10112637;28;93388;-69
2024/01/29 16:34:20;;;;;;;;;;;16.10;55.50;;;;;;10115796;28;94574;-68
2024/01/29 16:39:22;;;;;;;;;;;16.10;55.30;;;;;;10110198;28;94385;-69
2024/01/29 16:44:23;;;;;;;;;;;16.10;55.00;;;;;;10105944;28;93490;-70
2024/01/29 16:49:25;;;;;;;;;;;16.20;54.90;;;;;;10130356;28;94391;-68
2024/01/29 16:54:28;;;;;;;;;;;16.20;54.70;;;;;;10125673;28;97250;-69
2024/01/29 16:59:33;;;;;;;;;;;16.20;54.50;;;;;;10116476;28;94627;-69
2024/01/29 17:04:35;;;;;;;;;;;16.20;54.30;;;;;;10120456;28;94502;-69
2024/01/29 17:09:37;;;;;;;;;;;16.20;54.90;;;;;;10112639;28;93477;-71
2024/01/29 17:14:39;;;;;;;;;;;16.20;55.30;;;;;;10117686;28;94463;-70
2024/01/29 17:19:41;;;;;;;;;;;16.30;55.50;;;;;;10090095;28;92950;-70
2024/01/29 17:24:44;;;;;;;;;;;16.60;55.10;;;;;;10113551;28;94456;-70
2024/01/29 17:29:47;;;;;;;;;;;16.90;54.40;;;;;;10127796;28;92890;-70
2024/01/29 17:34:48;;;;;;;;;;;17.20;53.80;;;;;;10110006;28;93970;-69
2024/01/29 17:39:52;;;;;;;;;;;17.40;53.10;;;;;;10111356;28;93359;-69
2024/01/29 17:44:54;;;;;;;;;;;17.60;52.80;;;;;;10094402;28;96289;-69
2024/01/29 17:49:56;;;;;;;;;;;17.80;53.70;;;;;;10117605;28;93691;-68
2024/01/29 17:54:58;;;;;;;;;;;17.90;59.50;;;;;;10115975;28;94440;-68
2024/01/29 18:00:00;;;;;;;;;;;18.00;59.50;;;;;;10123909;28;93916;-69
2024/01/29 18:05:02;;;;;;;;;;;18.10;57.10;;;;;;10135212;28;95908;-69
2024/01/29 18:10:04;;;;;;;;;;;18.10;55.80;;;;;;10127714;28;93487;-70
2024/01/29 18:15:07;;;;;;;;;;;18.20;55.50;;;;;;10141854;28;93815;-70
2024/01/29 18:20:09;;;;;;;;;;;18.20;55.30;;;;;;10135481;28;93845;-70
2024/01/29 18:25:11;;;;;;;;;;;18.20;55.10;;;;;;10125079;28;94012;-69
2024/01/29 18:30:14;;;;;;;;;;;18.10;55.20;;;;;;10123721;28;93804;-70
2024/01/29 18:35:18;;;;;;;;;;;18.10;55.50;;;;;;10115663;28;97002;-69
2024/01/29 18:40:20;;;;;;;;;;;18.10;55.60;;;;;;10120207;28;93649;-69
2024/01/29 18:45:22;;;;;;;;;;;18.10;55.30;;;;;;10104810;28;93459;-69
2024/01/29 18:50:24;;;;;;;;;;;18.10;55.20;;;;;;10119067;28;94369;-70
2024/01/29 18:55:26;;;;;;;;;;;18.10;55.20;;;;;;10120050;28;93495;-69
2024/01/29 19:00:28;;;;;;;;;;;18.10;55.00;;;;;;10120747;28;93112;-70
2024/01/29 19:05:29;;;;;;;;;;;18.20;54.80;;;;;;10118828;28;94944;-70
2024/01/29 19:10:31;;;;;;;;;;;18.30;54.60;;;;;;10111314;28;93025;-70
2024/01/29 19:15:33;;;;;;;;;;;18.40;54.40;;;;;;10126383;28;94477;-69
2024/01/29 19:20:35;;;;;;;;;;;18.40;54.20;;;;;;10100007;28;93655;-70
2024/01/29 19:25:37;;;;;;;;;;;18.30;54.10;;;;;;10118094;28;96917;-69
2024/01/29 19:30:41;;;;;;;;;;;18.20;54.10;;;;;;10116478;28;93341;-69
2024/01/29 19:35:42;;;;;;;;;;;18.30;55.20;;;;;;10112160;28;94020;-69
2024/01/29 19:40:44;;;;;;;;;;;18.30;54.10;;;;;;10103433;28;93426;-70
2024/01/29 19:45:47;;;;;;;;;;;18.30;54.10;;;;;;10101914;28;94855;-70
2024/01/29 19:50:49;;;;;;;;;;;18.20;54.00;;;;;;10108988;28;93943;-70
2024/01/29 19:55:51;;;;;;;;;;;18.20;54.20;;;;;;10127136;28;93792;-70
2024/01/29 20:00:53;;;;;;;;;;;18.20;54.20;;;;;;10111465;28;94260;-70
2024/01/29 20:05:56;;;;;;;;;;;18.30;54.00;;;;;;10118205;28;94581;-70
2024/01/29 20:10:58;;;;;;;;;;;18.30;53.90;;;;;;10112407;28;93697;-70
2024/01/29 20:16:03;;;;;;;;;;;18.30;53.90;;;;;;10134171;28;96309;-70
2024/01/29 20:21:06;;;;;;;;;;;18.30;54.00;;;;;;10113182;28;93480;-70
2024/01/29 20:26:08;;;;;;;;;;;18.40;53.90;;;;;;10107395;28;93709;-69
2024/01/29 20:31:11;;;;;;;;;;;18.40;53.80;;;;;;10118703;28;94331;-69
2024/01/29 20:36:12;;;;;;;;;;;18.40;53.70;;;;;;10121118;28;94595;-70
2024/01/29 20:41:15;;;;;;;;;;;18.30;54.10;;;;;;10110906;28;94580;-69
2024/01/29 20:46:37;;;;;;;;;;;18.20;54.30;;;;;;10114055;28;93429;-71
2024/01/29 20:51:42;;;;;;;;;;;18.20;54.40;;;;;;10123596;28;92859;-69
2024/01/29 20:56:44;;;;;;;;;;;18.10;54.50;;;;;;10099390;28;93245;-69
2024/01/29 21:01:46;;;;;;;;;;;18.00;54.60;;;;;;10121198;28;93859;-69
2024/01/29 21:06:49;;;;;;;;;;;17.80;54.70;;;;;;10117354;28;96775;-68
2024/01/29 21:11:51;;;;;;;;;;;17.80;55.00;;;;;;10124048;28;94533;-69
2024/01/29 21:16:52;;;;;;;;;;;17.70;55.20;;;;;;10117982;28;94378;-69
2024/01/29 21:21:54;;;;;;;;;;;17.60;55.30;;;;;;10122509;28;94380;-69
2024/01/29 21:26:58;;;;;;;;;;;17.50;55.60;;;;;;10113901;28;114395;-69
2024/01/29 21:32:01;;;;;;;;;;;17.50;55.70;;;;;;10104424;28;93739;-69
2024/01/29 21:37:04;;;;;;;;;;;17.40;55.70;;;;;;10096884;28;93850;-69
2024/01/29 21:42:06;;;;;;;;;;;17.40;56.20;;;;;;10114751;28;93633;-69
2024/01/29 21:47:08;;;;;;;;;;;17.30;56.20;;;;;;10105391;28;93759;-69
2024/01/29 21:52:11;;;;;;;;;;;17.20;56.30;;;;;;10089271;28;93980;-69
2024/01/29 21:57:14;;;;;;;;;;;17.20;56.30;;;;;;10105959;28;96657;-69
2024/01/29 22:02:16;;;;;;;;;;;17.10;56.30;;;;;;10120180;28;94244;-69
2024/01/29 22:07:19;;;;;;;;;;;17.10;56.40;;;;;;10109731;28;94620;-69
2024/01/29 22:12:21;;;;;;;;;;;17.10;56.40;;;;;;10118272;28;93411;-69
2024/01/29 22:17:23;;;;;;;;;;;17.00;56.40;;;;;;10119765;28;94584;-69
2024/01/29 22:22:24;;;;;;;;;;;17.00;56.50;;;;;;10106094;28;93535;-69
2024/01/29 22:27:26;;;;;;;;;;;17.00;56.50;;;;;;10123884;28;93436;-69
2024/01/29 22:32:33;;;;;;;;;;;16.90;56.50;;;;;;10098358;28;93891;-69
2024/01/29 22:37:35;;;;;;;;;;;16.90;56.50;;;;;;10115242;28;93802;-69
2024/01/29 22:42:37;;;;;;;;;;;16.90;56.70;;;;;;10102333;28;93924;-69
2024/01/29 22:47:39;;;;;;;;;;;16.80;56.60;;;;;;10099944;28;96607;-69
2024/01/29 22:52:41;;;;;;;;;;;16.80;56.70;;;;;;10095068;28;93965;-69
2024/01/29 22:57:47;;;;;;;;;;;16.70;56.80;;;;;;10085276;28;93433;-69
2024/01/29 23:02:49;;;;;;;;;;;16.70;56.80;;;;;;10077157;28;93422;-69
2024/01/29 23:07:52;;;;;;;;;;;16.60;57.00;;;;;;10117191;28;93372;-69
2024/01/29 23:12:54;;;;;;;;;;;16.60;57.00;;;;;;10115530;28;93359;-69
2024/01/29 23:17:56;;;;;;;;;;;16.60;56.80;;;;;;10087018;28;93570;-70
2024/01/29 23:22:58;;;;;;;;;;;16.60;56.50;;;;;;10088873;28;93685;-69
2024/01/29 23:28:00;;;;;;;;;;;16.60;56.10;;;;;;10097715;28;93755;-69
2024/01/29 23:33:02;;;;;;;;;;;16.50;55.80;;;;;;10107803;28;94791;-68
2024/01/29 23:38:04;;;;;;;;;;;16.60;55.60;;;;;;10109789;28;98098;-68
2024/01/29 23:43:06;;;;;;;;;;;16.50;55.20;;;;;;10111703;28;94679;-69
2024/01/29 23:48:08;;;;;;;;;;;16.50;55.30;;;;;;10109987;28;93755;-68
2024/01/29 23:53:11;;;;;;;;;;;16.50;55.00;;;;;;10101882;28;94444;-69
2024/01/29 23:58:13;;;;;;;;;;;16.50;55.30;;;;;;10093629;28;93424;-68
